Time;durP1;ratioP1;P1;durP2;ratioP2;P2;SDS_P1;SDS_P2;PMS_P1;PMS_P2;Temp;Humidity;BMP_temperature;BMP_pressure;BME280_temperature;BME280_humidity;BME280_pressure;Samples;Min_cycle;Max_cycle;Signal;HPM_P1;HPM_P2
2023/10/03 00:04:24;;;;;;;8.52;5.32;;;15.80;99.90;;;;;;10550529;28;20229;-85
2023/10/03 00:09:28;;;;;;;8.07;5.43;;;15.90;99.90;;;;;;10553612;28;20256;-85
2023/10/03 00:14:31;;;;;;;13.02;7.88;;;16.10;99.90;;;;;;10548767;28;20641;-84
2023/10/03 00:19:33;;;;;;;13.35;7.30;;;16.00;99.90;;;;;;10558683;28;20260;-85
2023/10/03 00:24:36;;;;;;;10.80;7.45;;;15.90;99.90;;;;;;10559399;28;20232;-85
2023/10/03 00:29:40;;;;;;;12.40;7.55;;;15.90;99.90;;;;;;10576792;28;20270;-85
2023/10/03 00:34:45;;;;;;;11.02;7.40;;;15.80;99.90;;;;;;10566913;28;20229;-84
2023/10/03 00:39:48;;;;;;;14.75;8.80;;;15.70;99.90;;;;;;10558823;28;20228;-85
2023/10/03 00:44:50;;;;;;;9.73;6.70;;;15.70;99.90;;;;;;10571523;28;20244;-85
2023/10/03 00:49:53;;;;;;;12.43;7.80;;;15.50;99.90;;;;;;10553391;28;20252;-85
2023/10/03 00:54:58;;;;;;;16.25;9.80;;;15.50;99.90;;;;;;10538814;28;20229;-85
2023/10/03 01:00:00;;;;;;;12.55;8.10;;;15.30;99.90;;;;;;10555740;28;20690;-85
2023/10/03 01:05:03;;;;;;;9.45;5.78;;;15.20;99.90;;;;;;10564663;28;20225;-85
2023/10/03 01:10:07;;;;;;;13.13;8.82;;;15.30;99.90;;;;;;10575174;28;20256;-85
2023/10/03 01:15:14;;;;;;;11.05;6.75;;;15.20;99.90;;;;;;10546067;28;20283;-85
2023/10/03 01:20:28;;;;;;;15.65;8.43;;;15.10;99.90;;;;;;10536858;28;20232;-85
2023/10/03 01:25:34;;;;;;;14.95;8.85;;;15.20;99.90;;;;;;10540212;28;20237;-85
2023/10/03 01:30:37;;;;;;;12.85;9.00;;;15.20;99.90;;;;;;10517211;28;20278;-85
2023/10/03 01:35:40;;;;;;;15.15;8.93;;;15.30;99.90;;;;;;10557950;28;20260;-84
2023/10/03 01:40:43;;;;;;;19.70;9.65;;;15.00;99.90;;;;;;10538379;28;20305;-85
2023/10/03 01:45:47;;;;;;;23.45;10.20;;;15.00;99.90;;;;;;10552850;28;20676;-85
2023/10/03 01:50:50;;;;;;;10.77;7.20;;;14.80;99.90;;;;;;10556717;28;20314;-85
2023/10/03 01:55:53;;;;;;;16.42;8.75;;;14.80;99.90;;;;;;10538254;28;20228;-85
2023/10/03 02:00:56;;;;;;;15.45;9.55;;;14.80;99.90;;;;;;10537409;28;20674;-85
2023/10/03 02:05:59;;;;;;;11.05;7.15;;;14.70;99.90;;;;;;10553624;28;20261;-85
2023/10/03 02:11:05;;;;;;;11.85;8.55;;;14.80;99.90;;;;;;10534818;28;20710;-85
2023/10/03 02:16:10;;;;;;;12.02;8.43;;;14.30;99.90;;;;;;10554095;28;20267;-85
2023/10/03 02:21:16;;;;;;;12.68;8.23;;;14.20;99.90;;;;;;10552476;28;20282;-85
2023/10/03 02:26:20;;;;;;;10.40;6.18;;;14.40;99.90;;;;;;10570433;28;20613;-85
2023/10/03 02:31:22;;;;;;;13.05;9.20;;;14.60;99.90;;;;;;10531940;28;20275;-85
2023/10/03 02:36:25;;;;;;;11.60;8.45;;;14.50;99.90;;;;;;10519297;28;20319;-85
2023/10/03 02:41:30;;;;;;;10.30;6.18;;;14.40;99.90;;;;;;10528429;28;20668;-85
2023/10/03 02:46:33;;;;;;;12.32;8.63;;;14.60;99.90;;;;;;10546944;28;20771;-85
2023/10/03 02:51:36;;;;;;;18.88;11.02;;;14.30;99.90;;;;;;10511830;28;20260;-85
2023/10/03 02:56:39;;;;;;;13.48;9.52;;;14.30;99.90;;;;;;10534953;28;20289;-85
2023/10/03 03:01:41;;;;;;;16.55;9.68;;;14.20;99.90;;;;;;10570250;28;20580;-85
2023/10/03 03:06:46;;;;;;;11.20;8.32;;;14.20;99.90;;;;;;10530784;28;20678;-85
2023/10/03 03:11:49;;;;;;;14.30;9.05;;;14.00;99.90;;;;;;10552294;28;20256;-85
2023/10/03 03:16:52;;;;;;;11.45;8.27;;;14.10;99.90;;;;;;10534375;28;20250;-85
2023/10/03 03:21:57;;;;;;;13.73;9.13;;;14.00;99.90;;;;;;10570492;28;20241;-85
2023/10/03 03:27:00;;;;;;;21.75;10.32;;;14.00;99.90;;;;;;10546663;28;20228;-85
2023/10/03 03:32:04;;;;;;;10.38;6.55;;;14.00;99.90;;;;;;10561615;28;20302;-84
2023/10/03 03:37:21;;;;;;;13.77;8.90;;;14.20;99.90;;;;;;10544347;28;20311;-85
2023/10/03 03:42:25;;;;;;;13.15;8.75;;;14.10;99.90;;;;;;10567859;28;20609;-85
2023/10/03 03:47:27;;;;;;;18.80;9.10;;;13.90;99.90;;;;;;10558289;28;20209;-85
2023/10/03 03:52:32;;;;;;;12.00;8.45;;;13.70;99.90;;;;;;10557540;28;20707;-85
2023/10/03 03:57:35;;;;;;;13.38;9.48;;;13.60;99.90;;;;;;10577318;28;20277;-85
2023/10/03 04:02:38;;;;;;;11.80;8.00;;;13.90;99.90;;;;;;10529392;28;20298;-85
2023/10/03 04:07:41;;;;;;;13.48;9.38;;;13.60;99.90;;;;;;10560125;28;20250;-85
2023/10/03 04:12:44;;;;;;;14.10;8.98;;;13.40;99.90;;;;;;10549560;28;20793;-84
2023/10/03 04:17:48;;;;;;;17.02;9.70;;;13.20;99.90;;;;;;10558688;28;20616;-85
2023/10/03 04:22:51;;;;;;;18.58;8.82;;;13.10;99.90;;;;;;10556551;28;20321;-85
2023/10/03 04:27:56;;;;;;;10.68;5.82;;;13.50;99.90;;;;;;10559856;28;20251;-85
2023/10/03 04:32:58;;;;;;;12.43;7.50;;;13.70;99.90;;;;;;10566895;28;20301;-85
2023/10/03 04:38:04;;;;;;;14.60;9.65;;;14.00;99.90;;;;;;10541221;28;20233;-85
2023/10/03 04:43:14;;;;;;;13.13;8.48;;;13.90;99.90;;;;;;10535669;28;20266;-84
2023/10/03 04:48:17;;;;;;;10.70;7.07;;;13.60;99.90;;;;;;10558264;28;20286;-86
2023/10/03 04:53:20;;;;;;;19.25;9.82;;;13.70;99.90;;;;;;10565942;28;20662;-85
2023/10/03 04:58:22;;;;;;;11.25;7.57;;;13.70;99.90;;;;;;10570422;28;20225;-85
2023/10/03 05:03:25;;;;;;;4.43;3.38;;;13.80;99.90;;;;;;10557202;28;20719;-87
2023/10/03 05:08:28;;;;;;;16.77;8.95;;;14.00;99.90;;;;;;10574631;28;20611;-85
2023/10/03 05:13:31;;;;;;;14.68;8.18;;;13.90;99.90;;;;;;10573058;28;20709;-85
2023/10/03 05:18:34;;;;;;;20.67;9.30;;;13.90;99.90;;;;;;10557645;28;20375;-85
2023/10/03 05:23:36;;;;;;;18.30;9.63;;;14.20;99.90;;;;;;10539385;28;20242;-85
2023/10/03 05:28:39;;;;;;;16.73;9.73;;;14.30;99.90;;;;;;10534523;28;20241;-85
2023/10/03 05:33:42;;;;;;;19.08;10.77;;;14.20;99.90;;;;;;10517204;28;20669;-85
2023/10/03 05:38:46;;;;;;;20.08;10.88;;;14.30;99.90;;;;;;10549238;28;20253;-85
2023/10/03 05:43:54;;;;;;;16.65;9.93;;;14.50;99.90;;;;;;10551483;28;20302;-85
2023/10/03 05:48:57;;;;;;;16.17;9.52;;;14.70;99.90;;;;;;10534984;28;20229;-85
2023/10/03 05:54:00;;;;;;;21.20;10.38;;;14.70;99.90;;;;;;10553256;28;20640;-85
2023/10/03 05:59:02;;;;;;;15.82;9.10;;;14.80;99.90;;;;;;10552554;28;20274;-85
2023/10/03 06:04:05;;;;;;;26.70;11.15;;;14.80;99.90;;;;;;10546657;28;20250;-85
2023/10/03 06:09:11;;;;;;;13.95;8.35;;;15.00;99.90;;;;;;10528506;28;20229;-85
2023/10/03 06:14:14;;;;;;;17.65;10.15;;;15.20;99.90;;;;;;10540905;28;20248;-84
2023/10/03 06:19:18;;;;;;;21.27;8.75;;;15.30;99.90;;;;;;10552873;28;20243;-86
2023/10/03 06:24:23;;;;;;;13.88;9.35;;;15.40;99.90;;;;;;10566556;28;20285;-86
2023/10/03 06:29:25;;;;;;;16.80;8.68;;;15.60;99.90;;;;;;10534314;28;20321;-85
2023/10/03 06:34:28;;;;;;;14.98;8.85;;;15.70;99.90;;;;;;10496717;28;21185;-85
2023/10/03 06:39:31;;;;;;;10.32;6.25;;;16.00;99.90;;;;;;10529015;28;21001;-85
2023/10/03 06:44:37;;;;;;;14.65;8.68;;;16.10;99.90;;;;;;10513112;28;20555;-85
2023/10/03 06:49:40;;;;;;;14.32;8.00;;;16.20;99.90;;;;;;10512715;28;20225;-84
2023/10/03 06:54:43;;;;;;;17.15;7.93;;;16.30;99.90;;;;;;10507107;28;20271;-83
2023/10/03 06:59:46;;;;;;;17.40;8.30;;;16.70;99.90;;;;;;10530007;28;20241;-83
2023/10/03 07:04:49;;;;;;;13.60;7.88;;;16.90;99.90;;;;;;10530683;28;20230;-83
2023/10/03 07:09:52;;;;;;;17.73;7.35;;;17.00;99.90;;;;;;10508617;28;20673;-83
2023/10/03 07:14:55;;;;;;;18.60;8.52;;;17.10;99.90;;;;;;10527829;28;20261;-83
2023/10/03 07:19:58;;;;;;;10.00;5.90;;;17.40;99.90;;;;;;10522429;28;20218;-83
2023/10/03 07:25:01;;;;;;;21.45;7.90;;;17.50;99.90;;;;;;10528513;28;20246;-82
2023/10/03 07:30:07;;;;;;;19.25;8.27;;;17.70;99.90;;;;;;10514370;28;20237;-83
2023/10/03 07:35:12;;;;;;;14.15;7.00;;;18.00;99.90;;;;;;10525539;28;20269;-82
2023/10/03 07:40:15;;;;;;;14.60;7.75;;;18.30;99.90;;;;;;10470384;28;20292;-83
2023/10/03 07:45:18;;;;;;;11.32;5.28;;;18.50;99.10;;;;;;10474270;28;20238;-83
2023/10/03 07:50:21;;;;;;;10.40;6.00;;;18.80;98.00;;;;;;10494052;28;20230;-82
2023/10/03 07:55:26;;;;;;;11.02;6.20;;;19.10;96.80;;;;;;10493503;28;20256;-83
2023/10/03 08:00:29;;;;;;;11.60;6.18;;;19.40;95.70;;;;;;10468341;28;20234;-84
2023/10/03 08:05:31;;;;;;;12.88;5.80;;;19.80;94.80;;;;;;10465311;28;20227;-83
2023/10/03 08:10:34;;;;;;;10.25;5.72;;;20.30;93.90;;;;;;10452336;28;20288;-84
2023/10/03 08:15:37;;;;;;;13.82;5.93;;;20.50;92.90;;;;;;10452047;28;20207;-82
2023/10/03 08:20:39;;;;;;;10.95;5.35;;;20.70;92.80;;;;;;10455292;28;20222;-83
2023/10/03 08:25:45;;;;;;;14.50;6.13;;;20.90;91.90;;;;;;10492375;28;20229;-83
2023/10/03 08:30:50;;;;;;;11.40;5.28;;;21.00;91.50;;;;;;10473586;28;20315;-83
2023/10/03 08:41:37;;;;;;;11.27;6.10;;;21.30;90.20;;;;;;11536688;23;20294;-86
2023/10/03 08:46:58;;;;;;;13.85;6.32;;;21.60;89.40;;;;;;10218535;29;20239;-87
2023/10/03 08:52:02;;;;;;;8.82;5.43;;;21.80;86.60;;;;;;10242379;29;20946;-87
2023/10/03 08:57:11;;;;;;;14.30;6.25;;;21.90;84.90;;;;;;10232744;28;20238;-87
2023/10/03 09:02:24;;;;;;;11.75;6.75;;;21.90;82.70;;;;;;10206708;29;20683;-87
2023/10/03 09:07:43;;;;;;;13.82;5.97;;;22.00;84.70;;;;;;10209887;29;20632;-86
2023/10/03 09:12:46;;;;;;;10.73;5.85;;;22.10;83.60;;;;;;10207915;29;20266;-87
2023/10/03 09:17:52;;;;;;;13.75;5.70;;;22.20;83.10;;;;;;10223386;29;20294;-86
2023/10/03 09:23:05;;;;;;;9.82;5.28;;;22.40;79.70;;;;;;10183345;29;20239;-87
2023/10/03 09:28:09;;;;;;;11.13;5.47;;;22.50;79.70;;;;;;10168228;29;20243;-87
2023/10/03 09:33:12;;;;;;;12.52;5.32;;;22.60;79.00;;;;;;10179114;29;20277;-87
2023/10/03 09:38:19;;;;;;;14.52;5.78;;;22.90;79.30;;;;;;10205984;29;20278;-86
2023/10/03 09:43:28;;;;;;;8.88;5.35;;;23.10;75.20;;;;;;10205570;28;20262;-87
2023/10/03 09:48:31;;;;;;;7.20;4.43;;;23.30;74.90;;;;;;10205404;29;20250;-87
2023/10/03 09:53:37;;;;;;;12.57;5.00;;;23.50;71.90;;;;;;10206319;29;20258;-87
2023/10/03 09:58:46;;;;;;;16.77;5.75;;;23.70;67.10;;;;;;10220799;29;20729;-87
2023/10/03 10:03:50;;;;;;;9.25;4.28;;;23.90;63.50;;;;;;10205338;29;20246;-87
2023/10/03 10:09:13;;;;;;;8.07;4.45;;;24.10;59.80;;;;;;10205904;29;20752;-87
2023/10/03 10:14:19;;;;;;;7.55;4.18;;;24.20;70.50;;;;;;10196974;29;20306;-87
2023/10/03 10:19:22;;;;;;;8.48;4.70;;;25.70;56.20;;;;;;10165927;29;20294;-87
2023/10/03 10:24:25;;;;;;;11.90;4.72;;;24.50;52.90;;;;;;10167457;29;20757;-87
2023/10/03 10:29:31;;;;;;;9.20;4.65;;;24.60;51.00;;;;;;10167677;29;20318;-87
2023/10/03 10:34:35;;;;;;;9.77;5.57;;;24.50;49.00;;;;;;10165772;29;20262;-87
2023/10/03 10:39:57;;;;;;;11.65;5.75;;;24.40;47.90;;;;;;10167635;29;20380;-87
2023/10/03 10:45:03;;;;;;;9.63;5.10;;;24.30;49.40;;;;;;10232268;28;20810;-87
2023/10/03 10:50:06;;;;;;;13.45;5.75;;;24.20;50.60;;;;;;10217569;28;20710;-87
2023/10/03 10:55:15;;;;;;;17.70;6.43;;;24.30;49.90;;;;;;10243264;28;20678;-87
2023/10/03 11:00:21;;;;;;;13.00;4.95;;;24.30;53.40;;;;;;10245691;28;20218;-86
2023/10/03 11:05:29;;;;;;;14.25;5.55;;;24.50;53.90;;;;;;10243512;28;20261;-86
2023/10/03 11:10:32;;;;;;;14.25;6.63;;;24.40;50.30;;;;;;10235237;29;20281;-87
2023/10/03 11:15:37;;;;;;;17.48;7.70;;;24.50;49.80;;;;;;10250782;29;20257;-86
2023/10/03 11:20:40;;;;;;;16.83;6.15;;;24.60;48.00;;;;;;10235751;29;20737;-87
2023/10/03 11:26:06;;;;;;;13.60;5.40;;;24.70;45.50;;;;;;10234879;28;20260;-86
2023/10/03 11:31:09;;;;;;;11.82;5.07;;;24.90;47.70;;;;;;10252998;29;20238;-87
2023/10/03 11:36:13;;;;;;;12.68;7.30;;;25.00;46.20;;;;;;10234979;29;20237;-87
2023/10/03 11:41:38;;;;;;;11.63;5.63;;;25.60;61.50;;;;;;10227687;28;20324;-86
2023/10/03 11:46:43;;;;;;;12.93;6.07;;;;;;;;;;10235426;29;20261;-87
2023/10/03 11:51:47;;;;;;;12.88;8.00;;;25.20;44.40;;;;;;10231493;29;20303;-87
2023/10/03 11:56:49;;;;;;;15.32;6.80;;;25.20;43.10;;;;;;10194226;29;20647;-87
2023/10/03 12:01:56;;;;;;;9.07;4.82;;;25.30;42.30;;;;;;10211422;29;20636;-87
2023/10/03 12:06:59;;;;;;;8.52;5.68;;;25.40;44.10;;;;;;10227862;29;20289;-87
2023/10/03 12:12:02;;;;;;;10.50;6.43;;;25.60;44.40;;;;;;10210462;29;20685;-86
2023/10/03 12:17:05;;;;;;;12.63;6.07;;;25.70;40.00;;;;;;10211238;29;20223;-84
2023/10/03 12:22:08;;;;;;;18.60;6.47;;;25.70;40.50;;;;;;10210845;29;20243;-84
2023/10/03 12:27:10;;;;;;;19.75;8.00;;;25.60;40.20;;;;;;10187071;29;20239;-85
2023/10/03 12:32:13;;;;;;;13.95;6.70;;;25.70;38.70;;;;;;10211338;29;20316;-84
2023/10/03 12:37:18;;;;;;;11.90;6.53;;;25.70;38.00;;;;;;10194383;29;20648;-85
2023/10/03 12:42:21;;;;;;;13.43;6.28;;;25.70;37.90;;;;;;10224407;29;20262;-85
2023/10/03 12:47:23;;;;;;;9.80;5.35;;;25.80;45.00;;;;;;10249134;29;20238;-85
2023/10/03 12:52:29;;;;;;;18.45;8.48;;;25.70;44.90;;;;;;10232591;29;20645;-85
2023/10/03 12:57:31;;;;;;;15.23;6.47;;;25.60;43.50;;;;;;10248627;29;20753;-85
2023/10/03 13:02:34;;;;;;;10.30;6.10;;;25.50;40.80;;;;;;10249215;29;20249;-85
2023/10/03 13:07:37;;;;;;;11.90;6.53;;;25.50;44.90;;;;;;10232656;29;20269;-85
2023/10/03 13:12:44;;;;;;;13.18;6.65;;;25.90;45.80;;;;;;10232321;29;20667;-84
2023/10/03 13:17:52;;;;;;;17.98;6.97;;;25.10;43.60;;;;;;10231361;29;20246;-84
2023/10/03 13:22:57;;;;;;;8.88;5.63;;;25.30;44.20;;;;;;10230744;29;20304;-84
2023/10/03 13:28:00;;;;;;;17.80;6.97;;;25.40;44.00;;;;;;10244787;28;20336;-86
2023/10/03 13:33:02;;;;;;;16.13;6.60;;;25.50;42.60;;;;;;10249239;29;20712;-86
2023/10/03 13:38:06;;;;;;;21.60;8.13;;;25.50;47.40;;;;;;10264155;28;20225;-87
2023/10/03 13:43:09;;;;;;;11.80;5.97;;;25.40;44.30;;;;;;10286960;28;20273;-87
2023/10/03 13:48:12;;;;;;;18.17;6.88;;;25.30;45.00;;;;;;10287852;28;20264;-87
2023/10/03 13:53:19;;;;;;;10.85;6.15;;;25.30;43.00;;;;;;10286733;28;20311;-87
2023/10/03 13:58:22;;;;;;;12.52;5.65;;;25.40;43.00;;;;;;10287844;28;20230;-86
2023/10/03 14:03:24;;;;;;;19.27;7.75;;;25.50;44.70;;;;;;10268513;28;20237;-87
2023/10/03 14:08:27;;;;;;;17.42;6.10;;;25.50;42.40;;;;;;10242582;28;20284;-85
2023/10/03 14:13:30;;;;;;;18.67;6.57;;;25.50;38.50;;;;;;10229850;28;20808;-84
2023/10/03 14:18:33;;;;;;;16.70;6.22;;;25.60;39.30;;;;;;10207064;29;20629;-85
2023/10/03 14:23:37;;;;;;;12.40;5.93;;;25.40;37.30;;;;;;10205465;29;20298;-84
2023/10/03 14:28:39;;;;;;;11.32;5.82;;;25.60;38.40;;;;;;10241420;28;20233;-85
2023/10/03 14:33:42;;;;;;;26.08;6.25;;;25.30;37.60;;;;;;10246479;28;20246;-85
2023/10/03 14:38:45;;;;;;;14.90;6.85;;;25.40;37.60;;;;;;10245990;28;20285;-86
2023/10/03 14:43:48;;;;;;;14.90;6.32;;;25.40;36.40;;;;;;10245833;28;20266;-86
2023/10/03 14:48:51;;;;;;;13.05;6.18;;;25.40;39.20;;;;;;10244411;28;20654;-85
2023/10/03 14:53:53;;;;;;;14.23;5.88;;;25.40;38.50;;;;;;10248604;28;20257;-85
2023/10/03 14:58:59;;;;;;;10.65;5.40;;;25.50;36.80;;;;;;10225125;28;20328;-86
2023/10/03 15:04:02;;;;;;;13.63;5.75;;;25.50;40.00;;;;;;10242637;28;20785;-85
2023/10/03 15:09:04;;;;;;;9.50;4.68;;;25.40;43.60;;;;;;10216537;28;20325;-85
2023/10/03 15:14:07;;;;;;;8.77;3.72;;;25.30;43.80;;;;;;10209093;28;20262;-85
2023/10/03 15:19:10;;;;;;;8.27;4.93;;;25.50;47.20;;;;;;10206811;29;20230;-85
2023/10/03 15:24:14;;;;;;;12.10;5.70;;;25.40;46.20;;;;;;10245434;28;20241;-85
2023/10/03 15:29:17;;;;;;;11.20;5.10;;;25.30;46.90;;;;;;10285062;28;20249;-86
2023/10/03 15:34:28;;;;;;;10.65;4.95;;;25.20;47.70;;;;;;10284227;28;20249;-87
2023/10/03 15:39:31;;;;;;;9.55;4.43;;;25.10;44.80;;;;;;10230761;29;20688;-86
2023/10/03 15:44:34;;;;;;;11.55;6.10;;;25.20;43.80;;;;;;10245316;29;20257;-86
2023/10/03 15:49:36;;;;;;;9.18;4.93;;;25.20;45.90;;;;;;10258966;28;20312;-86
2023/10/03 15:54:39;;;;;;;11.13;5.55;;;25.10;42.40;;;;;;10237123;28;20751;-86
2023/10/03 15:59:42;;;;;;;21.65;7.85;;;25.10;42.50;;;;;;10261337;28;20234;-86
2023/10/03 16:04:45;;;;;;;10.65;6.68;;;25.00;41.70;;;;;;10249167;28;20269;-86
2023/10/03 16:09:50;;;;;;;10.30;6.82;;;25.00;43.00;;;;;;10239213;28;20230;-83
2023/10/03 16:14:52;;;;;;;20.17;7.07;;;24.60;56.20;;;;;;10250441;28;20798;-83
2023/10/03 16:19:55;;;;;;;15.25;7.05;;;24.80;41.00;;;;;;10253992;28;20234;-85
2023/10/03 16:24:58;;;;;;;14.85;7.57;;;24.70;40.50;;;;;;10234089;29;20680;-85
2023/10/03 16:30:05;;;;;;;12.63;6.70;;;24.70;41.70;;;;;;10250801;29;20312;-85
2023/10/03 16:35:14;;;;;;;15.23;7.82;;;24.50;43.00;;;;;;10246937;28;20791;-85
2023/10/03 16:40:22;;;;;;;10.43;6.30;;;24.50;50.50;;;;;;10211758;29;20640;-85
2023/10/03 16:45:24;;;;;;;19.10;7.28;;;24.60;52.40;;;;;;10237999;28;20254;-85
2023/10/03 16:50:27;;;;;;;11.02;6.85;;;24.60;52.60;;;;;;10248277;28;20226;-85
2023/10/03 16:55:32;;;;;;;12.00;6.78;;;24.40;52.90;;;;;;10247288;28;20290;-85
2023/10/03 17:00:35;;;;;;;11.32;6.65;;;24.60;53.70;;;;;;10228914;28;20629;-85
2023/10/03 17:05:38;;;;;;;14.48;6.45;;;24.50;52.60;;;;;;10248694;29;20257;-85
2023/10/03 17:10:41;;;;;;;15.20;6.30;;;24.60;52.60;;;;;;10245123;28;20234;-85
2023/10/03 17:15:43;;;;;;;11.75;6.13;;;24.60;51.90;;;;;;10231225;29;20262;-86
2023/10/03 17:20:47;;;;;;;11.63;6.72;;;24.80;50.70;;;;;;10206114;29;20297;-86
2023/10/03 17:25:50;;;;;;;11.95;7.20;;;25.00;50.20;;;;;;10226754;28;20677;-86
2023/10/03 17:30:53;;;;;;;18.98;6.22;;;24.80;50.30;;;;;;10239486;28;20246;-86
2023/10/03 17:35:56;;;;;;;18.90;7.47;;;24.80;50.40;;;;;;10219723;28;20254;-86
2023/10/03 17:40:59;;;;;;;12.15;6.25;;;24.80;50.30;;;;;;10224610;28;20242;-87
2023/10/03 17:46:03;;;;;;;14.25;6.70;;;24.60;51.10;;;;;;10240542;28;20237;-86
2023/10/03 17:51:08;;;;;;;10.43;5.93;;;24.50;51.60;;;;;;10245680;28;20296;-87
2023/10/03 17:56:11;;;;;;;12.25;6.20;;;24.50;51.60;;;;;;9928451;28;10000530;-85
2023/10/03 18:01:21;;;;;;;11.15;6.38;;;24.40;52.20;;;;;;10242290;28;20314;-86
2023/10/03 18:06:24;;;;;;;9.43;5.80;;;24.20;53.10;;;;;;10241993;28;20276;-85
2023/10/03 18:11:27;;;;;;;10.30;6.40;;;24.30;53.60;;;;;;10243274;28;20261;-85
2023/10/03 18:16:30;;;;;;;12.98;6.60;;;24.10;54.30;;;;;;10242012;28;20321;-85
2023/10/03 18:21:33;;;;;;;13.32;6.80;;;24.10;55.50;;;;;;10227437;28;20245;-84
2023/10/03 18:26:37;;;;;;;13.82;7.35;;;23.90;56.30;;;;;;9923161;28;10000215;-86
2023/10/03 18:31:40;;;;;;;10.95;5.20;;;23.70;67.90;;;;;;10248251;28;20707;-86
2023/10/03 18:36:43;;;;;;;13.35;6.82;;;23.70;67.90;;;;;;10244839;29;20266;-85
2023/10/03 18:41:46;;;;;;;24.70;9.02;;;23.70;67.90;;;;;;10244696;29;20258;-86
2023/10/03 18:46:48;;;;;;;12.25;6.32;;;23.80;74.60;;;;;;10228846;29;20257;-86
2023/10/03 18:51:51;;;;;;;9.60;5.93;;;23.30;77.80;;;;;;10244856;28;20702;-84
2023/10/03 18:56:53;;;;;;;10.90;6.88;;;23.20;79.60;;;;;;10227573;28;20731;-85
2023/10/03 19:01:56;;;;;;;8.98;5.68;;;23.10;85.80;;;;;;10234365;28;20766;-85
2023/10/03 19:07:00;;;;;;;11.15;5.75;;;22.90;81.90;;;;;;10231006;29;20308;-85
2023/10/03 19:12:03;;;;;;;8.27;5.95;;;22.90;83.20;;;;;;10217891;28;20626;-84
2023/10/03 19:17:07;;;;;;;10.85;4.90;;;22.80;91.20;;;;;;10246036;28;20324;-84
2023/10/03 19:22:09;;;;;;;8.82;4.82;;;22.40;93.50;;;;;;10251729;28;20307;-85
2023/10/03 19:27:12;;;;;;;9.95;5.68;;;22.40;97.50;;;;;;10267944;28;20354;-87
2023/10/03 19:32:18;;;;;;;11.18;5.05;;;20.90;99.10;;;;;;10234536;29;20668;-87
2023/10/03 19:37:20;;;;;;;7.00;4.43;;;19.90;99.90;;;;;;10227060;28;20254;-85
2023/10/03 19:42:23;;;;;;;8.52;4.80;;;19.70;99.90;;;;;;10249466;28;20262;-86
2023/10/03 19:47:25;;;;;;;7.25;4.38;;;19.90;99.90;;;;;;10236691;28;20234;-86
2023/10/03 19:52:28;;;;;;;7.90;4.95;;;19.50;99.90;;;;;;10242057;28;20617;-85
2023/10/03 19:57:36;;;;;;;8.30;4.53;;;19.10;99.90;;;;;;10237417;29;20324;-86
2023/10/03 20:02:39;;;;;;;9.38;4.18;;;19.40;99.90;;;;;;10249256;28;20307;-86
2023/10/03 20:07:41;;;;;;;5.97;4.13;;;18.90;99.90;;;;;;10240793;29;20673;-86
2023/10/03 20:12:44;;;;;;;7.20;4.18;;;19.00;99.90;;;;;;10213667;29;20269;-86
2023/10/03 20:17:47;;;;;;;8.20;3.67;;;18.90;99.90;;;;;;10243534;28;20724;-86
2023/10/03 20:22:49;;;;;;;7.18;4.13;;;19.00;99.90;;;;;;10231115;29;20234;-86
2023/10/03 20:27:52;;;;;;;7.53;4.82;;;19.00;99.90;;;;;;10244760;28;20402;-85
2023/10/03 20:32:55;;;;;;;6.78;4.13;;;18.90;99.90;;;;;;10225228;29;20286;-86
2023/10/03 20:37:58;;;;;;;8.82;4.60;;;19.30;99.90;;;;;;10248768;28;20328;-86
2023/10/03 20:43:00;;;;;;;8.52;3.95;;;19.80;99.90;;;;;;10230247;29;20290;-86
2023/10/03 20:48:07;;;;;;;5.57;3.30;;;19.70;99.90;;;;;;10247603;28;20237;-85
2023/10/03 20:53:10;;;;;;;5.95;4.00;;;19.90;99.90;;;;;;10247456;28;20291;-85
2023/10/03 20:58:15;;;;;;;5.88;3.30;;;20.20;99.90;;;;;;10247902;28;20284;-85
2023/10/03 21:03:17;;;;;;;7.78;3.83;;;20.20;99.40;;;;;;10219768;29;20312;-85
2023/10/03 21:08:23;;;;;;;6.82;4.10;;;19.90;99.90;;;;;;10248073;29;20238;-87
2023/10/03 21:13:25;;;;;;;5.65;2.78;;;19.70;99.90;;;;;;10213281;28;20297;-86
2023/10/03 21:18:28;;;;;;;7.88;4.90;;;19.90;99.60;;;;;;10246144;28;20780;-86
2023/10/03 21:23:31;;;;;;;4.22;3.42;;;20.20;98.90;;;;;;10210846;28;20622;-86
2023/10/03 21:28:34;;;;;;;9.23;3.35;;;20.70;98.10;;;;;;10246349;28;20238;-86
2023/10/03 21:33:37;;;;;;;4.15;2.42;;;20.30;97.80;;;;;;10246924;28;20309;-85
2023/10/03 21:38:40;;;;;;;4.35;2.35;;;20.00;98.00;;;;;;10250534;28;20689;-85
2023/10/03 21:43:43;;;;;;;3.92;2.78;;;19.40;99.90;;;;;;10260670;28;20324;-85
2023/10/03 21:48:46;;;;;;;4.05;2.63;;;19.20;99.90;;;;;;10248864;28;20299;-86
2023/10/03 21:53:49;;;;;;;4.53;3.10;;;19.50;99.90;;;;;;10287881;28;20284;-86
2023/10/03 21:58:52;;;;;;;3.80;2.70;;;19.40;99.90;;;;;;10259336;28;20246;-86
2023/10/03 22:03:55;;;;;;;4.30;2.05;;;19.00;99.90;;;;;;10246094;28;20233;-85
2023/10/03 22:08:57;;;;;;;3.47;2.00;;;19.20;99.90;;;;;;10249991;28;20229;-85
2023/10/03 22:14:00;;;;;;;3.17;1.92;;;18.70;99.90;;;;;;10265462;28;20675;-86
2023/10/03 22:19:02;;;;;;;3.80;1.20;;;18.60;99.90;;;;;;10246794;29;20293;-86
2023/10/03 22:24:05;;;;;;;4.72;2.15;;;18.70;99.90;;;;;;10245931;28;20273;-86
2023/10/03 22:29:08;;;;;;;5.30;1.23;;;19.10;99.90;;;;;;10245145;28;20238;-86
2023/10/03 22:34:12;;;;;;;4.55;1.70;;;18.60;98.90;;;;;;10246302;29;20277;-86
2023/10/03 22:39:16;;;;;;;1.35;0.75;;;18.30;99.90;;;;;;10245325;28;20273;-86
2023/10/03 22:44:19;;;;;;;3.50;1.52;;;18.50;99.90;;;;;;10245988;28;20269;-86
2023/10/03 22:49:22;;;;;;;2.08;1.08;;;18.30;99.90;;;;;;10244661;29;20269;-86
2023/10/03 22:54:25;;;;;;;2.80;1.70;;;18.40;99.90;;;;;;10245698;29;20716;-87
2023/10/03 22:59:32;;;;;;;5.38;1.90;;;;;;;;;;10247667;28;20618;-86
2023/10/03 23:04:35;;;;;;;4.45;2.17;;;18.00;99.90;;;;;;10253587;29;20645;-86
2023/10/03 23:09:38;;;;;;;4.18;2.13;;;18.30;99.90;;;;;;10281076;28;20225;-86
2023/10/03 23:14:41;;;;;;;6.05;1.90;;;18.80;99.90;;;;;;10293151;28;20308;-86
2023/10/03 23:19:43;;;;;;;3.05;1.10;;;18.80;99.90;;;;;;10255165;28;20234;-86
2023/10/03 23:24:47;;;;;;;2.90;1.33;;;18.60;99.90;;;;;;10253156;29;20233;-86
2023/10/03 23:29:49;;;;;;;6.07;1.42;;;18.30;99.90;;;;;;10290015;28;20658;-86
2023/10/03 23:34:52;;;;;;;2.42;1.63;;;17.90;99.90;;;;;;10286673;28;20246;-86
2023/10/03 23:39:55;;;;;;;2.92;2.28;;;18.40;99.90;;;;;;10252256;29;20233;-86
2023/10/03 23:44:57;;;;;;;7.13;2.97;;;18.50;99.90;;;;;;10252544;29;20644;-86
2023/10/03 23:50:11;;;;;;;4.40;2.00;;;18.40;99.90;;;;;;10252256;29;20250;-86
2023/10/03 23:55:15;;;;;;;5.63;2.53;;;18.90;99.90;;;;;;10251305;29;20266;-86
